Fort Valley, Georgia
Current Conditions -  °F | °C
As of 6:55 PM on Wednesday 28 Jan 2015 (Local Time) from KPXE Reporting Station
Clear Clear  
Wind Chill: 46°   Ceiling: Unl
Heat Index: 46°   Visibility: 10mi
Dew Point: 33°   Wind: 0mph
Humidity: 59%   Direction: NA
Pressure: 30.28"   Gusts: NA
Location:  32.55°N, 83.89°W
Report Text: KPXE 282355Z AUTO 00000KT 10SM CLR 08/00 A3028 RMK AO2 T00790004 10141 20077
Loading
Personal Weather Stations






























Interactive Weather Map New forecast layout! Learn more

10-Day Weather Forecast

Advertisements
Track Severe Weather on mobile